JRLK1: John Redmond Lake

Data processed at Fri Dec 08 2017 23:37


All information presented herein is the property of the government of the United States of America and may be revised or deleted at any time without prior notice.
Dissemination of this information without the expressed written consent of the Public Affairs Office, Tulsa District U.S. Army Corps of Engineers is strictly prohibited.
These data are gathered electronically and, as presented, have not undergone any form of quality control. These data are not guaranteed to be valid or correct.
Go to home page.
Go to station list.

Upstream stations:

Downstream station:
Previous Day
Next Day
Current Day
    
SHEF ID:       JRLK1     John Redmond Lake
STATION TYPE:  RESERVOIR
Normal Pool:  Bottom =  1026.00, Top =  1039.00

               PRECIP ELEVATION   STORAGE    INFLOW   RELEASE  AIR-TEMP  WIND-DIRWIND-SPEED REL-HUMID SOLAR-RAD   VOLTAGE  BAT-LOAD
                   in        ft     ac-ft       cfs       cfs         F       deg       mph         %      W/m2      volt      volt
              Ccp-Rev   Ccp-Rev   Ccp-Rev  Regi-Rev  Regi-Rev   Ccp-Rev   Ccp-Rev   Ccp-Rev   Ccp-Rev   Ccp-Rev   Ccp-Rev   Ccp-Rev
(US/Central)
12/06 00:00      0.00   1041.57     72690         7        57     39.61    248.10     15.30     48.89      0.00     12.57     12.34
12/06 01:00      0.00   1041.58     72785        10        57     39.90    262.40     13.60     47.23      0.00     12.47     12.33
12/06 02:00      0.00   1041.57     72690        12        57     40.96    276.00     20.40     46.49      0.00     12.54     12.33
12/06 03:00      0.00   1041.56     72596        10        57     40.69    288.90     21.90     45.44      0.00     12.53     12.30
12/06 04:00      0.00   1041.58     72785         7        57     39.69    287.20     20.20     47.86      0.00     12.52     12.30
12/06 05:00      0.00   1041.57     72690         7        57     38.91    286.50     17.70     50.66      0.00     12.51     12.27
12/06 06:00      0.00   1041.54     72407         7        57     38.50    286.60     14.10     54.96      0.00     12.50     12.27
12/06 07:00      0.00   1041.54     72407       107        57     37.63    278.30     11.50     58.83      0.00     12.50     12.27
12/06 08:00      0.00   1041.54     72407       206        57     35.87    265.70     11.30     63.59      9.40     12.51     12.26
12/06 09:00      0.00   1041.56     72596       211        57     36.79    292.10     16.10     61.78    175.40     12.60     12.33
12/06 10:00      0.00   1041.57     72690       245        57     38.62    292.70     17.20     58.07    342.70     12.87     12.48
12/06 11:00      0.00   1041.58     72785       279        57     42.13    310.60     20.40     53.55    472.30     13.16     12.84
12/06 12:00      0.00   1041.57     72690       213        57     43.23    315.50     20.60     52.88    544.30     14.16     12.90
12/06 13:00      0.00   1041.59     72879       113        57     45.01    306.10     22.90     46.35    555.10     13.23     12.90
12/06 14:00      0.00   1041.58     72785       109        57     45.86    306.60     25.30     43.22    501.10     12.92     12.63
12/06 15:00      0.00   1041.77     74581        72        57     46.22    301.40     26.10     42.43    363.70     13.16     12.62
12/06 16:00      0.00   1043.58     92877        36        57     46.53    308.00     25.20     42.16    218.80     12.83     12.63
12/06 17:00      0.00   1041.56     72596        52        57     46.53    315.60     22.90     41.14     43.30     12.74     12.52
12/06 18:00      0.00   1041.60     72974       292        57     45.23    324.60     16.40     45.21      0.00     12.69     12.47
12/06 19:00      0.00   1041.60     72974      1291        57     42.93    320.90     12.80     49.85      0.00     12.68     12.44
12/06 20:00      0.00   1041.58     72785      1291        57     41.31    333.80     22.10     51.45      0.00     12.65     12.42
12/06 21:00      0.00   1041.64     73352      1291        57     38.39    346.40     20.20     59.66      0.00     12.64     12.40
12/06 22:00      0.00   1041.65     73446      1239        57     35.31    346.30     22.20     63.85      0.00     12.61     12.38
12/06 23:00      0.00   1041.65     73446       999        57     31.59    351.00     21.50     61.78      0.00     12.59     12.37